Rain radar more information rain snow radar


Visit our other weather sites:

Template documentation
and downloads

And another site



Nearby METAR Reports

   
KTIW - Tacoma, Washington, USA
Distance from station: W 7 mi
Updated: Jun 16 2019 1:53 pm
Few Clouds  
Few Clouds  
   Wind: Calm
Wind: Calm
Temperature: 64.4°F
Dew Point: 53.6°F
Humidity: 68%
Barometer: 30.06 inHg
Clouds: Few Clouds
Visibility: 10 mi
Cloud details: Few Clouds 1463 m
KTIW 162053Z 00000KT 10SM FEW048 18/12 A3006 RMK AO2 SLP179 T01830117 58010
KTCM - Tacoma/Mc Chord, Washington, USA
Distance from station: S 9 mi
Updated: Jun 16 2019 1:58 pm
Clear  
Clear  
   Wind: North 5.8 mph
Wind: North 5.8 mph
Temperature: 68°F
Dew Point: 59°F
Humidity: 73%
Barometer: 30.06 inHg
Clouds: Clear
Visibility: 10 mi
Cloud details: Clear m
KTCM 162058Z AUTO 36005KT 10SM CLR 20/15 A3006 RMK AO2 SLP182 T02030153 58009 $
KSEA - Seattle/Metro, Washington, USA
Distance from station: NNE 15 mi
Updated: Jun 16 2019 1:53 pm
Partly Cloudy  
Partly Cloudy  
   Wind: SW 9.2 mph
Wind: SW 9.2 mph
Temperature: 66.2°F
Dew Point: 53.6°F
Humidity: 64%
Barometer: 30.07 inHg
Clouds: Partly Cloudy
Visibility: 10 mi
Cloud details: Few Clouds 3658 m,
Partly Cloudy 6706 m
KSEA 162053Z 22008KT 10SM FEW120 SCT220 19/12 A3007 RMK AO2 SLP187 T01940117 58004
KBFI - Seattle/Boeing, Washington, USA
Distance from station: NNE 21 mi
Updated: Jun 16 2019 1:53 pm
Partly Cloudy  
Partly Cloudy  
   Wind: WSW 3.5 mph
Wind: WSW 3.5 mph
Temperature: 69.8°F
Dew Point: 53.6°F
Humidity: 57%
Barometer: 30.05 inHg
Clouds: Partly Cloudy
Visibility: 10 mi
Cloud details: Few Clouds 914 m,
Partly Cloudy 5791 m
KBFI 162053Z 24003KT 10SM FEW030 SCT190 21/12 A3005 RMK AO2 SLP176 T02060117 58006
KOLM - Olympia, Washington, USA
Distance from station: SW 29 mi
Updated: Jun 16 2019 1:54 pm
Clear  
Clear  
   Wind: NNW 6.9 mph
Wind: NNW 6.9 mph
Temperature: 71.6°F
Dew Point: 53.6°F
Humidity: 53%
Barometer: 30.05 inHg
Clouds: Clear
Visibility: 10 mi
Cloud details: Clear m
KOLM 162054Z 33006KT 10SM CLR 22/12 A3005 RMK AO2 SLP176 T02220122 58013 $
 

Script developed by  Saratoga-weather.org Adapted for the template by  Weerstation Leuven

You find our weather info also at:

Weather Underground

WeatherlinkIP

Citizen Weather Observer Program (CWOP)

Equipment we use:

Weather-station
Davis VP2

Weather-program
Meteobridge

Provider
MDD Hosting

Davis VP2

Meteobridge

MDD Hosting